sensor_id;sensor_type;location;lat;lon;timestamp;P1;durP1;ratioP1;P2;durP2;ratioP2
80539;SDS011;69869;48.036;15.780;2023-06-22T00:00:57;4.25;;;3.42;;
80539;SDS011;69869;48.036;15.780;2023-06-22T00:03:23;5.47;;;3.35;;
80539;SDS011;69869;48.036;15.780;2023-06-22T00:05:50;5.00;;;3.60;;
80539;SDS011;69869;48.036;15.780;2023-06-22T00:08:17;6.82;;;3.78;;
80539;SDS011;69869;48.036;15.780;2023-06-22T00:10:44;4.93;;;3.45;;
80539;SDS011;69869;48.036;15.780;2023-06-22T00:13:10;4.43;;;3.65;;
80539;SDS011;69869;48.036;15.780;2023-06-22T00:15:38;4.20;;;3.40;;
80539;SDS011;69869;48.036;15.780;2023-06-22T00:18:07;4.20;;;3.45;;
80539;SDS011;69869;48.036;15.780;2023-06-22T00:20:33;4.60;;;3.47;;
80539;SDS011;69869;48.036;15.780;2023-06-22T00:23:02;5.22;;;3.65;;
80539;SDS011;69869;48.036;15.780;2023-06-22T00:25:38;4.63;;;3.55;;
80539;SDS011;69869;48.036;15.780;2023-06-22T00:28:06;4.32;;;3.40;;
80539;SDS011;69869;48.036;15.780;2023-06-22T00:30:33;3.75;;;3.30;;
80539;SDS011;69869;48.036;15.780;2023-06-22T00:32:59;4.30;;;3.20;;
80539;SDS011;69869;48.036;15.780;2023-06-22T00:35:25;4.68;;;3.70;;
80539;SDS011;69869;48.036;15.780;2023-06-22T00:37:54;3.80;;;3.40;;
80539;SDS011;69869;48.036;15.780;2023-06-22T00:40:25;4.50;;;3.53;;
80539;SDS011;69869;48.036;15.780;2023-06-22T00:42:52;4.05;;;3.47;;
80539;SDS011;69869;48.036;15.780;2023-06-22T00:45:17;4.85;;;3.85;;
80539;SDS011;69869;48.036;15.780;2023-06-22T00:47:43;4.50;;;3.53;;
80539;SDS011;69869;48.036;15.780;2023-06-22T00:50:10;4.57;;;3.50;;
80539;SDS011;69869;48.036;15.780;2023-06-22T00:52:43;4.78;;;3.72;;
80539;SDS011;69869;48.036;15.780;2023-06-22T00:55:09;3.88;;;3.47;;
80539;SDS011;69869;48.036;15.780;2023-06-22T00:57:35;5.18;;;3.03;;
80539;SDS011;69869;48.036;15.780;2023-06-22T01:00:02;5.00;;;3.20;;
80539;SDS011;69869;48.036;15.780;2023-06-22T01:02:32;3.72;;;3.17;;
80539;SDS011;69869;48.036;15.780;2023-06-22T01:04:59;4.30;;;3.30;;
80539;SDS011;69869;48.036;15.780;2023-06-22T01:12:22;4.65;;;3.50;;
80539;SDS011;69869;48.036;15.780;2023-06-22T01:14:54;4.35;;;3.30;;
80539;SDS011;69869;48.036;15.780;2023-06-22T01:17:29;4.18;;;3.22;;
80539;SDS011;69869;48.036;15.780;2023-06-22T01:19:57;3.92;;;3.45;;
80539;SDS011;69869;48.036;15.780;2023-06-22T01:22:25;5.18;;;3.45;;
80539;SDS011;69869;48.036;15.780;2023-06-22T01:25:46;4.35;;;3.00;;
80539;SDS011;69869;48.036;15.780;2023-06-22T01:31:02;3.67;;;3.35;;
80539;SDS011;69869;48.036;15.780;2023-06-22T01:33:31;3.63;;;3.17;;
80539;SDS011;69869;48.036;15.780;2023-06-22T01:36:00;4.68;;;3.30;;
80539;SDS011;69869;48.036;15.780;2023-06-22T01:38:27;3.42;;;2.95;;
80539;SDS011;69869;48.036;15.780;2023-06-22T01:40:54;5.03;;;3.10;;
80539;SDS011;69869;48.036;15.780;2023-06-22T01:43:21;3.60;;;3.15;;
80539;SDS011;69869;48.036;15.780;2023-06-22T01:45:49;4.30;;;3.28;;
80539;SDS011;69869;48.036;15.780;2023-06-22T01:48:15;4.70;;;3.47;;
80539;SDS011;69869;48.036;15.780;2023-06-22T01:50:42;6.18;;;3.38;;
80539;SDS011;69869;48.036;15.780;2023-06-22T01:53:08;3.30;;;3.00;;
80539;SDS011;69869;48.036;15.780;2023-06-22T01:55:34;3.72;;;3.35;;
80539;SDS011;69869;48.036;15.780;2023-06-22T01:58:00;4.07;;;3.25;;
80539;SDS011;69869;48.036;15.780;2023-06-22T02:00:25;6.13;;;3.30;;
80539;SDS011;69869;48.036;15.780;2023-06-22T02:03:03;4.65;;;3.00;;
80539;SDS011;69869;48.036;15.780;2023-06-22T02:05:37;4.43;;;3.10;;
80539;SDS011;69869;48.036;15.780;2023-06-22T02:08:28;3.65;;;3.33;;
80539;SDS011;69869;48.036;15.780;2023-06-22T02:11:12;5.82;;;3.17;;
80539;SDS011;69869;48.036;15.780;2023-06-22T02:13:40;4.80;;;3.60;;
80539;SDS011;69869;48.036;15.780;2023-06-22T02:16:08;3.70;;;3.25;;
80539;SDS011;69869;48.036;15.780;2023-06-22T02:18:36;4.72;;;3.00;;
80539;SDS011;69869;48.036;15.780;2023-06-22T02:21:02;4.80;;;3.42;;
80539;SDS011;69869;48.036;15.780;2023-06-22T02:23:28;4.82;;;3.15;;
80539;SDS011;69869;48.036;15.780;2023-06-22T02:25:54;4.15;;;3.17;;
80539;SDS011;69869;48.036;15.780;2023-06-22T02:28:19;3.67;;;3.30;;
80539;SDS011;69869;48.036;15.780;2023-06-22T02:30:45;3.53;;;3.22;;
80539;SDS011;69869;48.036;15.780;2023-06-22T02:33:11;4.55;;;3.45;;
80539;SDS011;69869;48.036;15.780;2023-06-22T02:35:36;4.40;;;3.17;;
80539;SDS011;69869;48.036;15.780;2023-06-22T02:38:03;4.18;;;3.72;;
80539;SDS011;69869;48.036;15.780;2023-06-22T02:40:29;3.30;;;3.00;;
80539;SDS011;69869;48.036;15.780;2023-06-22T02:42:55;3.95;;;3.25;;
80539;SDS011;69869;48.036;15.780;2023-06-22T02:45:23;4.20;;;3.08;;
80539;SDS011;69869;48.036;15.780;2023-06-22T02:47:49;3.00;;;2.70;;
80539;SDS011;69869;48.036;15.780;2023-06-22T02:50:15;3.67;;;3.08;;
80539;SDS011;69869;48.036;15.780;2023-06-22T02:52:43;3.20;;;2.67;;
80539;SDS011;69869;48.036;15.780;2023-06-22T02:55:11;3.17;;;2.88;;
80539;SDS011;69869;48.036;15.780;2023-06-22T02:57:37;4.15;;;3.00;;
80539;SDS011;69869;48.036;15.780;2023-06-22T03:00:03;4.30;;;3.17;;
80539;SDS011;69869;48.036;15.780;2023-06-22T03:02:41;4.60;;;3.03;;
80539;SDS011;69869;48.036;15.780;2023-06-22T03:05:07;4.40;;;3.00;;
80539;SDS011;69869;48.036;15.780;2023-06-22T03:10:08;3.13;;;2.83;;
80539;SDS011;69869;48.036;15.780;2023-06-22T03:12:34;5.28;;;3.10;;
80539;SDS011;69869;48.036;15.780;2023-06-22T03:15:01;3.63;;;2.92;;
80539;SDS011;69869;48.036;15.780;2023-06-22T03:17:26;5.38;;;3.00;;
80539;SDS011;69869;48.036;15.780;2023-06-22T03:19:52;3.63;;;3.20;;
80539;SDS011;69869;48.036;15.780;2023-06-22T03:22:18;4.63;;;3.28;;
80539;SDS011;69869;48.036;15.780;2023-06-22T03:24:43;3.40;;;3.10;;
80539;SDS011;69869;48.036;15.780;2023-06-22T03:27:09;5.35;;;3.42;;
80539;SDS011;69869;48.036;15.780;2023-06-22T03:29:35;3.80;;;3.35;;
80539;SDS011;69869;48.036;15.780;2023-06-22T03:32:00;4.93;;;2.85;;
80539;SDS011;69869;48.036;15.780;2023-06-22T03:34:26;4.78;;;2.90;;
80539;SDS011;69869;48.036;15.780;2023-06-22T03:36:52;3.30;;;3.00;;
80539;SDS011;69869;48.036;15.780;2023-06-22T03:39:17;4.10;;;3.20;;
80539;SDS011;69869;48.036;15.780;2023-06-22T03:41:43;3.55;;;3.25;;
80539;SDS011;69869;48.036;15.780;2023-06-22T03:44:09;2.90;;;2.70;;
80539;SDS011;69869;48.036;15.780;2023-06-22T03:46:37;3.03;;;2.72;;
80539;SDS011;69869;48.036;15.780;2023-06-22T03:49:03;4.03;;;3.10;;
80539;SDS011;69869;48.036;15.780;2023-06-22T03:51:32;3.38;;;3.08;;
80539;SDS011;69869;48.036;15.780;2023-06-22T03:53:58;4.35;;;3.13;;
80539;SDS011;69869;48.036;15.780;2023-06-22T03:56:23;4.32;;;3.00;;
80539;SDS011;69869;48.036;15.780;2023-06-22T03:58:49;4.47;;;3.10;;
80539;SDS011;69869;48.036;15.780;2023-06-22T04:01:15;4.07;;;3.08;;
80539;SDS011;69869;48.036;15.780;2023-06-22T04:03:42;4.30;;;3.22;;
80539;SDS011;69869;48.036;15.780;2023-06-22T04:06:08;4.75;;;3.50;;
80539;SDS011;69869;48.036;15.780;2023-06-22T04:08:33;4.32;;;3.40;;
80539;SDS011;69869;48.036;15.780;2023-06-22T04:10:59;3.33;;;3.03;;
80539;SDS011;69869;48.036;15.780;2023-06-22T04:13:25;5.18;;;3.45;;
80539;SDS011;69869;48.036;15.780;2023-06-22T04:15:50;3.97;;;3.22;;
80539;SDS011;69869;48.036;15.780;2023-06-22T04:18:16;4.40;;;3.25;;
80539;SDS011;69869;48.036;15.780;2023-06-22T04:20:42;5.03;;;3.53;;
80539;SDS011;69869;48.036;15.780;2023-06-22T04:23:11;5.00;;;3.50;;
80539;SDS011;69869;48.036;15.780;2023-06-22T04:25:37;4.30;;;3.28;;
80539;SDS011;69869;48.036;15.780;2023-06-22T04:28:02;6.25;;;3.63;;
80539;SDS011;69869;48.036;15.780;2023-06-22T04:30:29;5.68;;;3.60;;
80539;SDS011;69869;48.036;15.780;2023-06-22T04:32:56;7.07;;;3.67;;
80539;SDS011;69869;48.036;15.780;2023-06-22T04:35:23;4.95;;;3.50;;
80539;SDS011;69869;48.036;15.780;2023-06-22T04:37:49;4.63;;;4.05;;
80539;SDS011;69869;48.036;15.780;2023-06-22T04:40:15;6.28;;;3.80;;
80539;SDS011;69869;48.036;15.780;2023-06-22T04:42:41;7.40;;;3.70;;
80539;SDS011;69869;48.036;15.780;2023-06-22T04:45:17;6.80;;;3.50;;
80539;SDS011;69869;48.036;15.780;2023-06-22T04:47:43;6.40;;;3.75;;
80539;SDS011;69869;48.036;15.780;2023-06-22T04:50:10;6.05;;;3.70;;
80539;SDS011;69869;48.036;15.780;2023-06-22T04:52:36;5.00;;;3.55;;
80539;SDS011;69869;48.036;15.780;2023-06-22T04:55:02;5.00;;;3.50;;
80539;SDS011;69869;48.036;15.780;2023-06-22T04:57:29;5.70;;;3.70;;
80539;SDS011;69869;48.036;15.780;2023-06-22T05:00:00;4.22;;;3.45;;
80539;SDS011;69869;48.036;15.780;2023-06-22T05:02:41;6.15;;;3.50;;
80539;SDS011;69869;48.036;15.780;2023-06-22T05:05:07;4.22;;;3.30;;
80539;SDS011;69869;48.036;15.780;2023-06-22T05:07:33;5.35;;;3.40;;
80539;SDS011;69869;48.036;15.780;2023-06-22T05:10:00;7.85;;;3.92;;
80539;SDS011;69869;48.036;15.780;2023-06-22T05:12:27;4.88;;;3.60;;
80539;SDS011;69869;48.036;15.780;2023-06-22T05:14:54;7.05;;;3.92;;
80539;SDS011;69869;48.036;15.780;2023-06-22T05:17:19;4.90;;;3.40;;
80539;SDS011;69869;48.036;15.780;2023-06-22T05:19:45;5.50;;;3.83;;
80539;SDS011;69869;48.036;15.780;2023-06-22T05:22:14;7.75;;;3.70;;
80539;SDS011;69869;48.036;15.780;2023-06-22T05:24:40;5.88;;;3.78;;
80539;SDS011;69869;48.036;15.780;2023-06-22T05:27:06;5.85;;;3.80;;
80539;SDS011;69869;48.036;15.780;2023-06-22T05:29:32;7.60;;;4.00;;
80539;SDS011;69869;48.036;15.780;2023-06-22T05:31:58;5.18;;;3.60;;
80539;SDS011;69869;48.036;15.780;2023-06-22T05:34:24;5.57;;;3.80;;
80539;SDS011;69869;48.036;15.780;2023-06-22T05:36:49;4.78;;;3.80;;
80539;SDS011;69869;48.036;15.780;2023-06-22T05:39:15;5.18;;;3.67;;
80539;SDS011;69869;48.036;15.780;2023-06-22T05:41:41;5.35;;;3.60;;
80539;SDS011;69869;48.036;15.780;2023-06-22T05:44:08;5.55;;;4.07;;
80539;SDS011;69869;48.036;15.780;2023-06-22T05:46:34;4.70;;;3.67;;
80539;SDS011;69869;48.036;15.780;2023-06-22T05:48:59;5.32;;;3.90;;
80539;SDS011;69869;48.036;15.780;2023-06-22T05:51:25;5.05;;;3.83;;
80539;SDS011;69869;48.036;15.780;2023-06-22T05:53:51;5.80;;;3.95;;
80539;SDS011;69869;48.036;15.780;2023-06-22T05:56:16;4.47;;;3.58;;
80539;SDS011;69869;48.036;15.780;2023-06-22T05:58:42;7.75;;;3.95;;
80539;SDS011;69869;48.036;15.780;2023-06-22T06:01:08;4.60;;;3.70;;
80539;SDS011;69869;48.036;15.780;2023-06-22T06:03:34;6.13;;;4.10;;
80539;SDS011;69869;48.036;15.780;2023-06-22T06:06:05;4.90;;;3.40;;
80539;SDS011;69869;48.036;15.780;2023-06-22T06:08:38;4.50;;;3.75;;
80539;SDS011;69869;48.036;15.780;2023-06-22T06:11:05;4.68;;;3.60;;
80539;SDS011;69869;48.036;15.780;2023-06-22T06:13:30;5.38;;;3.70;;
80539;SDS011;69869;48.036;15.780;2023-06-22T06:15:56;6.18;;;3.80;;
80539;SDS011;69869;48.036;15.780;2023-06-22T06:18:22;6.22;;;3.90;;
80539;SDS011;69869;48.036;15.780;2023-06-22T06:20:48;5.75;;;4.00;;
80539;SDS011;69869;48.036;15.780;2023-06-22T06:23:14;6.95;;;4.07;;
80539;SDS011;69869;48.036;15.780;2023-06-22T06:25:40;5.43;;;4.00;;
80539;SDS011;69869;48.036;15.780;2023-06-22T06:28:05;5.43;;;3.67;;
80539;SDS011;69869;48.036;15.780;2023-06-22T06:30:31;7.75;;;4.10;;
80539;SDS011;69869;48.036;15.780;2023-06-22T06:32:57;7.15;;;4.10;;
80539;SDS011;69869;48.036;15.780;2023-06-22T06:35:23;6.55;;;3.80;;
80539;SDS011;69869;48.036;15.780;2023-06-22T06:37:49;6.10;;;4.00;;
80539;SDS011;69869;48.036;15.780;2023-06-22T06:40:16;6.63;;;3.70;;
80539;SDS011;69869;48.036;15.780;2023-06-22T06:42:43;4.85;;;3.38;;
80539;SDS011;69869;48.036;15.780;2023-06-22T06:45:19;5.68;;;3.65;;
80539;SDS011;69869;48.036;15.780;2023-06-22T06:47:50;4.13;;;3.38;;
80539;SDS011;69869;48.036;15.780;2023-06-22T06:50:17;5.00;;;3.45;;
80539;SDS011;69869;48.036;15.780;2023-06-22T06:52:43;6.68;;;4.00;;
80539;SDS011;69869;48.036;15.780;2023-06-22T06:55:09;6.78;;;3.58;;
80539;SDS011;69869;48.036;15.780;2023-06-22T06:57:37;7.60;;;3.47;;
80539;SDS011;69869;48.036;15.780;2023-06-22T07:00:04;4.60;;;3.53;;
80539;SDS011;69869;48.036;15.780;2023-06-22T07:02:37;3.85;;;3.45;;
80539;SDS011;69869;48.036;15.780;2023-06-22T07:05:05;4.20;;;3.33;;
80539;SDS011;69869;48.036;15.780;2023-06-22T07:07:31;3.67;;;3.38;;
80539;SDS011;69869;48.036;15.780;2023-06-22T07:09:57;4.90;;;3.30;;
80539;SDS011;69869;48.036;15.780;2023-06-22T07:12:23;5.68;;;3.65;;
80539;SDS011;69869;48.036;15.780;2023-06-22T07:14:48;4.50;;;3.50;;
80539;SDS011;69869;48.036;15.780;2023-06-22T07:17:15;7.30;;;3.80;;
80539;SDS011;69869;48.036;15.780;2023-06-22T07:19:41;6.00;;;3.83;;
80539;SDS011;69869;48.036;15.780;2023-06-22T07:22:07;4.82;;;3.63;;
80539;SDS011;69869;48.036;15.780;2023-06-22T07:24:33;5.57;;;4.03;;
80539;SDS011;69869;48.036;15.780;2023-06-22T07:26:58;4.72;;;3.63;;
80539;SDS011;69869;48.036;15.780;2023-06-22T07:29:24;6.55;;;3.95;;
80539;SDS011;69869;48.036;15.780;2023-06-22T07:31:51;5.88;;;3.95;;
80539;SDS011;69869;48.036;15.780;2023-06-22T07:34:17;7.18;;;4.28;;
80539;SDS011;69869;48.036;15.780;2023-06-22T07:36:43;6.20;;;4.00;;
80539;SDS011;69869;48.036;15.780;2023-06-22T07:39:10;5.85;;;3.95;;
80539;SDS011;69869;48.036;15.780;2023-06-22T07:41:37;4.63;;;3.70;;
80539;SDS011;69869;48.036;15.780;2023-06-22T07:44:04;5.07;;;3.65;;
80539;SDS011;69869;48.036;15.780;2023-06-22T07:46:31;6.13;;;4.22;;
80539;SDS011;69869;48.036;15.780;2023-06-22T07:48:57;6.25;;;4.13;;
80539;SDS011;69869;48.036;15.780;2023-06-22T07:51:23;6.07;;;3.87;;
80539;SDS011;69869;48.036;15.780;2023-06-22T07:53:49;8.32;;;3.72;;
80539;SDS011;69869;48.036;15.780;2023-06-22T07:56:14;5.15;;;4.07;;
80539;SDS011;69869;48.036;15.780;2023-06-22T07:58:44;5.00;;;4.03;;
80539;SDS011;69869;48.036;15.780;2023-06-22T08:01:16;6.32;;;4.47;;
80539;SDS011;69869;48.036;15.780;2023-06-22T08:03:42;8.15;;;4.35;;
80539;SDS011;69869;48.036;15.780;2023-06-22T08:06:08;5.63;;;4.30;;
80539;SDS011;69869;48.036;15.780;2023-06-22T08:08:35;4.47;;;4.00;;
80539;SDS011;69869;48.036;15.780;2023-06-22T08:11:01;8.90;;;4.47;;
80539;SDS011;69869;48.036;15.780;2023-06-22T08:13:27;5.97;;;4.07;;
80539;SDS011;69869;48.036;15.780;2023-06-22T08:15:53;6.78;;;4.43;;
80539;SDS011;69869;48.036;15.780;2023-06-22T08:18:18;7.15;;;4.47;;
80539;SDS011;69869;48.036;15.780;2023-06-22T08:20:44;5.78;;;4.53;;
80539;SDS011;69869;48.036;15.780;2023-06-22T08:23:10;5.75;;;4.38;;
80539;SDS011;69869;48.036;15.780;2023-06-22T08:25:35;5.38;;;4.53;;
80539;SDS011;69869;48.036;15.780;2023-06-22T08:28:01;4.95;;;4.43;;
80539;SDS011;69869;48.036;15.780;2023-06-22T08:30:28;5.47;;;4.78;;
80539;SDS011;69869;48.036;15.780;2023-06-22T08:32:54;5.28;;;4.30;;
80539;SDS011;69869;48.036;15.780;2023-06-22T08:35:20;6.38;;;4.85;;
80539;SDS011;69869;48.036;15.780;2023-06-22T08:37:49;8.50;;;4.80;;
80539;SDS011;69869;48.036;15.780;2023-06-22T08:40:18;7.95;;;4.53;;
80539;SDS011;69869;48.036;15.780;2023-06-22T08:42:47;6.20;;;5.10;;
80539;SDS011;69869;48.036;15.780;2023-06-22T08:45:16;6.05;;;4.45;;
80539;SDS011;69869;48.036;15.780;2023-06-22T08:47:42;5.85;;;4.85;;
80539;SDS011;69869;48.036;15.780;2023-06-22T08:50:08;6.90;;;4.63;;
80539;SDS011;69869;48.036;15.780;2023-06-22T08:52:35;5.97;;;4.65;;
80539;SDS011;69869;48.036;15.780;2023-06-22T08:55:02;7.25;;;4.63;;
80539;SDS011;69869;48.036;15.780;2023-06-22T08:57:28;5.75;;;4.38;;
80539;SDS011;69869;48.036;15.780;2023-06-22T08:59:55;9.35;;;4.78;;
80539;SDS011;69869;48.036;15.780;2023-06-22T09:02:23;6.22;;;4.50;;
80539;SDS011;69869;48.036;15.780;2023-06-22T09:04:49;6.00;;;4.57;;
80539;SDS011;69869;48.036;15.780;2023-06-22T09:09:50;5.15;;;4.38;;
80539;SDS011;69869;48.036;15.780;2023-06-22T09:12:17;7.82;;;4.70;;
80539;SDS011;69869;48.036;15.780;2023-06-22T09:14:45;6.15;;;5.00;;
80539;SDS011;69869;48.036;15.780;2023-06-22T09:17:12;5.05;;;4.57;;
80539;SDS011;69869;48.036;15.780;2023-06-22T09:19:38;6.18;;;4.70;;
80539;SDS011;69869;48.036;15.780;2023-06-22T09:22:04;5.18;;;4.53;;
80539;SDS011;69869;48.036;15.780;2023-06-22T09:24:31;5.60;;;4.88;;
80539;SDS011;69869;48.036;15.780;2023-06-22T09:26:57;5.57;;;4.20;;
80539;SDS011;69869;48.036;15.780;2023-06-22T09:29:23;5.82;;;4.20;;
80539;SDS011;69869;48.036;15.780;2023-06-22T09:31:48;7.65;;;4.65;;
80539;SDS011;69869;48.036;15.780;2023-06-22T09:34:14;7.10;;;4.93;;
80539;SDS011;69869;48.036;15.780;2023-06-22T09:36:45;7.18;;;4.88;;
80539;SDS011;69869;48.036;15.780;2023-06-22T09:39:11;7.70;;;4.70;;
80539;SDS011;69869;48.036;15.780;2023-06-22T09:41:37;7.07;;;5.28;;
80539;SDS011;69869;48.036;15.780;2023-06-22T09:44:02;5.28;;;4.78;;
80539;SDS011;69869;48.036;15.780;2023-06-22T09:46:28;5.35;;;4.70;;
80539;SDS011;69869;48.036;15.780;2023-06-22T09:48:54;8.20;;;4.97;;
80539;SDS011;69869;48.036;15.780;2023-06-22T09:51:20;6.90;;;4.97;;
80539;SDS011;69869;48.036;15.780;2023-06-22T09:53:47;6.93;;;4.75;;
80539;SDS011;69869;48.036;15.780;2023-06-22T09:56:13;5.78;;;4.80;;
80539;SDS011;69869;48.036;15.780;2023-06-22T09:58:44;5.82;;;5.00;;
80539;SDS011;69869;48.036;15.780;2023-06-22T10:01:11;6.43;;;4.90;;
80539;SDS011;69869;48.036;15.780;2023-06-22T10:03:39;5.65;;;5.07;;
80539;SDS011;69869;48.036;15.780;2023-06-22T10:06:06;8.50;;;4.80;;
80539;SDS011;69869;48.036;15.780;2023-06-22T10:08:32;6.88;;;4.63;;
80539;SDS011;69869;48.036;15.780;2023-06-22T10:10:57;6.75;;;5.03;;
80539;SDS011;69869;48.036;15.780;2023-06-22T10:13:23;6.55;;;4.63;;
80539;SDS011;69869;48.036;15.780;2023-06-22T10:15:49;6.82;;;4.68;;
80539;SDS011;69869;48.036;15.780;2023-06-22T10:18:17;6.32;;;4.68;;
80539;SDS011;69869;48.036;15.780;2023-06-22T10:20:43;5.90;;;4.35;;
80539;SDS011;69869;48.036;15.780;2023-06-22T10:23:11;8.18;;;4.90;;
80539;SDS011;69869;48.036;15.780;2023-06-22T10:25:37;5.28;;;4.55;;
80539;SDS011;69869;48.036;15.780;2023-06-22T10:28:03;8.05;;;4.63;;
80539;SDS011;69869;48.036;15.780;2023-06-22T10:30:28;5.53;;;4.88;;
80539;SDS011;69869;48.036;15.780;2023-06-22T10:32:54;5.32;;;4.57;;
80539;SDS011;69869;48.036;15.780;2023-06-22T10:35:23;4.53;;;4.13;;
80539;SDS011;69869;48.036;15.780;2023-06-22T10:37:48;5.95;;;4.10;;
80539;SDS011;69869;48.036;15.780;2023-06-22T10:40:15;5.07;;;4.57;;
80539;SDS011;69869;48.036;15.780;2023-06-22T10:42:42;4.75;;;3.85;;
80539;SDS011;69869;48.036;15.780;2023-06-22T10:45:08;5.22;;;4.25;;
80539;SDS011;69869;48.036;15.780;2023-06-22T10:47:34;6.00;;;4.20;;
80539;SDS011;69869;48.036;15.780;2023-06-22T10:50:01;5.70;;;4.40;;
80539;SDS011;69869;48.036;15.780;2023-06-22T10:52:27;5.97;;;4.72;;
80539;SDS011;69869;48.036;15.780;2023-06-22T10:54:52;4.65;;;4.22;;
80539;SDS011;69869;48.036;15.780;2023-06-22T10:57:18;4.90;;;4.40;;
80539;SDS011;69869;48.036;15.780;2023-06-22T10:59:44;5.40;;;4.05;;
80539;SDS011;69869;48.036;15.780;2023-06-22T11:02:10;4.93;;;3.83;;
80539;SDS011;69869;48.036;15.780;2023-06-22T11:04:35;4.13;;;3.72;;
80539;SDS011;69869;48.036;15.780;2023-06-22T11:07:02;4.75;;;4.20;;
80539;SDS011;69869;48.036;15.780;2023-06-22T11:09:28;4.00;;;3.65;;
80539;SDS011;69869;48.036;15.780;2023-06-22T11:11:53;5.50;;;4.25;;
80539;SDS011;69869;48.036;15.780;2023-06-22T11:14:21;4.35;;;3.95;;
80539;SDS011;69869;48.036;15.780;2023-06-22T11:16:48;4.57;;;3.88;;
80539;SDS011;69869;48.036;15.780;2023-06-22T11:19:13;6.15;;;3.92;;
80539;SDS011;69869;48.036;15.780;2023-06-22T11:21:39;6.82;;;4.43;;
80539;SDS011;69869;48.036;15.780;2023-06-22T11:24:05;4.25;;;3.78;;
80539;SDS011;69869;48.036;15.780;2023-06-22T11:26:31;4.15;;;3.70;;
80539;SDS011;69869;48.036;15.780;2023-06-22T11:28:57;4.15;;;3.80;;
80539;SDS011;69869;48.036;15.780;2023-06-22T11:31:23;4.70;;;3.90;;
80539;SDS011;69869;48.036;15.780;2023-06-22T11:33:49;4.05;;;3.65;;
80539;SDS011;69869;48.036;15.780;2023-06-22T11:36:15;5.07;;;4.03;;
80539;SDS011;69869;48.036;15.780;2023-06-22T11:38:42;5.28;;;3.92;;
80539;SDS011;69869;48.036;15.780;2023-06-22T11:41:08;4.30;;;3.80;;
80539;SDS011;69869;48.036;15.780;2023-06-22T11:43:35;4.63;;;3.58;;
80539;SDS011;69869;48.036;15.780;2023-06-22T11:46:02;3.80;;;3.50;;
80539;SDS011;69869;48.036;15.780;2023-06-22T11:48:28;6.10;;;3.90;;
80539;SDS011;69869;48.036;15.780;2023-06-22T11:50:54;5.53;;;4.40;;
80539;SDS011;69869;48.036;15.780;2023-06-22T11:53:21;4.80;;;4.18;;
80539;SDS011;69869;48.036;15.780;2023-06-22T11:55:47;4.50;;;3.80;;
80539;SDS011;69869;48.036;15.780;2023-06-22T11:58:14;5.55;;;3.80;;
80539;SDS011;69869;48.036;15.780;2023-06-22T12:00:39;4.30;;;3.85;;
80539;SDS011;69869;48.036;15.780;2023-06-22T12:03:06;4.72;;;3.83;;
80539;SDS011;69869;48.036;15.780;2023-06-22T12:05:32;5.45;;;3.80;;
80539;SDS011;69869;48.036;15.780;2023-06-22T12:07:58;4.18;;;3.78;;
80539;SDS011;69869;48.036;15.780;2023-06-22T12:10:24;4.45;;;3.47;;
80539;SDS011;69869;48.036;15.780;2023-06-22T12:12:51;4.45;;;3.47;;
80539;SDS011;69869;48.036;15.780;2023-06-22T12:15:16;3.70;;;3.30;;
80539;SDS011;69869;48.036;15.780;2023-06-22T12:17:42;3.70;;;3.40;;
80539;SDS011;69869;48.036;15.780;2023-06-22T12:20:08;4.10;;;3.63;;
80539;SDS011;69869;48.036;15.780;2023-06-22T12:22:34;3.95;;;3.60;;
80539;SDS011;69869;48.036;15.780;2023-06-22T12:25:00;3.83;;;3.53;;
80539;SDS011;69869;48.036;15.780;2023-06-22T12:27:26;6.18;;;3.75;;
80539;SDS011;69869;48.036;15.780;2023-06-22T12:29:52;4.65;;;3.78;;
80539;SDS011;69869;48.036;15.780;2023-06-22T12:32:18;5.45;;;4.07;;
80539;SDS011;69869;48.036;15.780;2023-06-22T12:34:44;5.47;;;3.60;;
80539;SDS011;69869;48.036;15.780;2023-06-22T12:37:10;3.50;;;3.20;;
80539;SDS011;69869;48.036;15.780;2023-06-22T12:39:36;4.10;;;3.55;;
80539;SDS011;69869;48.036;15.780;2023-06-22T12:42:03;5.47;;;3.72;;
80539;SDS011;69869;48.036;15.780;2023-06-22T12:44:28;3.65;;;3.35;;
80539;SDS011;69869;48.036;15.780;2023-06-22T12:46:54;4.18;;;3.30;;
80539;SDS011;69869;48.036;15.780;2023-06-22T12:49:20;3.72;;;3.40;;
80539;SDS011;69869;48.036;15.780;2023-06-22T12:51:45;3.60;;;3.30;;
80539;SDS011;69869;48.036;15.780;2023-06-22T12:54:11;4.15;;;3.35;;
80539;SDS011;69869;48.036;15.780;2023-06-22T12:56:37;3.85;;;3.25;;
80539;SDS011;69869;48.036;15.780;2023-06-22T12:59:04;3.67;;;3.28;;
80539;SDS011;69869;48.036;15.780;2023-06-22T13:01:31;4.53;;;3.50;;
80539;SDS011;69869;48.036;15.780;2023-06-22T13:03:57;7.05;;;4.18;;
80539;SDS011;69869;48.036;15.780;2023-06-22T13:06:24;4.38;;;3.97;;
80539;SDS011;69869;48.036;15.780;2023-06-22T13:08:49;4.20;;;3.47;;
80539;SDS011;69869;48.036;15.780;2023-06-22T13:11:15;4.03;;;3.63;;
80539;SDS011;69869;48.036;15.780;2023-06-22T13:13:41;4.07;;;3.67;;
80539;SDS011;69869;48.036;15.780;2023-06-22T13:16:07;6.22;;;4.00;;
80539;SDS011;69869;48.036;15.780;2023-06-22T13:18:33;6.13;;;4.00;;
80539;SDS011;69869;48.036;15.780;2023-06-22T13:21:00;4.10;;;3.70;;
80539;SDS011;69869;48.036;15.780;2023-06-22T13:23:27;4.10;;;3.70;;
80539;SDS011;69869;48.036;15.780;2023-06-22T13:25:52;4.95;;;3.85;;
80539;SDS011;69869;48.036;15.780;2023-06-22T13:28:18;4.22;;;3.78;;
80539;SDS011;69869;48.036;15.780;2023-06-22T13:30:45;5.47;;;3.97;;
80539;SDS011;69869;48.036;15.780;2023-06-22T13:33:12;3.97;;;3.67;;
80539;SDS011;69869;48.036;15.780;2023-06-22T13:35:38;5.75;;;3.88;;
80539;SDS011;69869;48.036;15.780;2023-06-22T13:38:04;3.33;;;3.13;;
80539;SDS011;69869;48.036;15.780;2023-06-22T13:40:30;4.03;;;3.40;;
80539;SDS011;69869;48.036;15.780;2023-06-22T13:42:56;3.95;;;3.55;;
80539;SDS011;69869;48.036;15.780;2023-06-22T13:45:22;4.78;;;3.90;;
80539;SDS011;69869;48.036;15.780;2023-06-22T13:47:48;5.00;;;3.35;;
80539;SDS011;69869;48.036;15.780;2023-06-22T13:50:14;5.45;;;3.85;;
80539;SDS011;69869;48.036;15.780;2023-06-22T13:52:40;3.92;;;3.55;;
80539;SDS011;69869;48.036;15.780;2023-06-22T13:55:06;4.55;;;3.80;;
80539;SDS011;69869;48.036;15.780;2023-06-22T13:57:32;6.35;;;3.70;;
80539;SDS011;69869;48.036;15.780;2023-06-22T13:59:59;4.32;;;3.92;;
80539;SDS011;69869;48.036;15.780;2023-06-22T14:02:27;4.90;;;3.33;;
80539;SDS011;69869;48.036;15.780;2023-06-22T14:04:53;4.18;;;3.20;;
80539;SDS011;69869;48.036;15.780;2023-06-22T14:07:19;4.10;;;3.67;;
80539;SDS011;69869;48.036;15.780;2023-06-22T14:09:46;4.80;;;4.30;;
80539;SDS011;69869;48.036;15.780;2023-06-22T14:12:12;4.05;;;3.42;;
80539;SDS011;69869;48.036;15.780;2023-06-22T14:14:38;3.90;;;3.60;;
80539;SDS011;69869;48.036;15.780;2023-06-22T14:17:04;3.55;;;3.17;;
80539;SDS011;69869;48.036;15.780;2023-06-22T14:19:30;5.18;;;4.18;;
80539;SDS011;69869;48.036;15.780;2023-06-22T14:21:56;6.10;;;3.92;;
80539;SDS011;69869;48.036;15.780;2023-06-22T14:24:22;4.13;;;3.45;;
80539;SDS011;69869;48.036;15.780;2023-06-22T14:26:48;3.72;;;3.38;;
80539;SDS011;69869;48.036;15.780;2023-06-22T14:29:14;3.80;;;3.50;;
80539;SDS011;69869;48.036;15.780;2023-06-22T14:31:40;4.22;;;3.05;;
80539;SDS011;69869;48.036;15.780;2023-06-22T14:34:06;5.20;;;3.22;;
80539;SDS011;69869;48.036;15.780;2023-06-22T14:36:32;3.92;;;3.03;;
80539;SDS011;69869;48.036;15.780;2023-06-22T14:38:57;4.05;;;3.70;;
80539;SDS011;69869;48.036;15.780;2023-06-22T14:41:23;3.60;;;3.30;;
80539;SDS011;69869;48.036;15.780;2023-06-22T14:43:51;4.88;;;3.42;;